sensor_id;sensor_type;location;lat;lon;timestamp;P1;durP1;ratioP1;P2;durP2;ratioP2
2860;SDS011;1438;50.922;6.704;2023-06-19T00:00:11;7.83;;;5.50;;
2860;SDS011;1438;50.922;6.704;2023-06-19T00:02:39;6.97;;;6.27;;
2860;SDS011;1438;50.922;6.704;2023-06-19T00:05:05;6.97;;;6.27;;
2860;SDS011;1438;50.922;6.704;2023-06-19T00:07:32;7.27;;;6.50;;
2860;SDS011;1438;50.922;6.704;2023-06-19T00:09:58;7.20;;;6.50;;
2860;SDS011;1438;50.922;6.704;2023-06-19T00:12:24;6.63;;;6.03;;
2860;SDS011;1438;50.922;6.704;2023-06-19T00:14:50;8.50;;;6.40;;
2860;SDS011;1438;50.922;6.704;2023-06-19T00:17:16;8.63;;;6.40;;
2860;SDS011;1438;50.922;6.704;2023-06-19T00:19:43;6.83;;;6.13;;
2860;SDS011;1438;50.922;6.704;2023-06-19T00:22:09;8.83;;;6.57;;
2860;SDS011;1438;50.922;6.704;2023-06-19T00:24:35;7.53;;;6.93;;
2860;SDS011;1438;50.922;6.704;2023-06-19T00:27:01;8.00;;;7.10;;
2860;SDS011;1438;50.922;6.704;2023-06-19T00:29:28;9.00;;;5.50;;
2860;SDS011;1438;50.922;6.704;2023-06-19T00:31:54;6.80;;;6.10;;
2860;SDS011;1438;50.922;6.704;2023-06-19T00:34:20;7.00;;;6.40;;
2860;SDS011;1438;50.922;6.704;2023-06-19T00:36:49;6.87;;;6.17;;
2860;SDS011;1438;50.922;6.704;2023-06-19T00:39:15;7.83;;;6.10;;
2860;SDS011;1438;50.922;6.704;2023-06-19T00:41:41;6.30;;;5.70;;
2860;SDS011;1438;50.922;6.704;2023-06-19T00:44:09;7.20;;;6.50;;
2860;SDS011;1438;50.922;6.704;2023-06-19T00:46:37;6.93;;;6.33;;
2860;SDS011;1438;50.922;6.704;2023-06-19T00:49:05;7.43;;;6.80;;
2860;SDS011;1438;50.922;6.704;2023-06-19T00:51:31;9.83;;;7.00;;
2860;SDS011;1438;50.922;6.704;2023-06-19T00:53:57;7.97;;;7.27;;
2860;SDS011;1438;50.922;6.704;2023-06-19T00:56:23;8.00;;;7.13;;
2860;SDS011;1438;50.922;6.704;2023-06-19T00:58:49;7.90;;;7.20;;
2860;SDS011;1438;50.922;6.704;2023-06-19T01:01:16;7.77;;;7.00;;
2860;SDS011;1438;50.922;6.704;2023-06-19T01:03:43;6.60;;;6.00;;
2860;SDS011;1438;50.922;6.704;2023-06-19T01:06:10;8.20;;;7.47;;
2860;SDS011;1438;50.922;6.704;2023-06-19T01:08:54;8.50;;;6.67;;
2860;SDS011;1438;50.922;6.704;2023-06-19T01:11:23;13.83;;;6.93;;
2860;SDS011;1438;50.922;6.704;2023-06-19T01:13:54;10.77;;;7.10;;
2860;SDS011;1438;50.922;6.704;2023-06-19T01:16:23;7.77;;;7.07;;
2860;SDS011;1438;50.922;6.704;2023-06-19T01:18:49;7.97;;;7.27;;
2860;SDS011;1438;50.922;6.704;2023-06-19T01:21:16;10.00;;;7.30;;
2860;SDS011;1438;50.922;6.704;2023-06-19T01:23:43;8.00;;;7.20;;
2860;SDS011;1438;50.922;6.704;2023-06-19T01:26:09;9.03;;;7.33;;
2860;SDS011;1438;50.922;6.704;2023-06-19T01:28:35;7.27;;;6.50;;
2860;SDS011;1438;50.922;6.704;2023-06-19T01:31:02;7.30;;;6.60;;
2860;SDS011;1438;50.922;6.704;2023-06-19T01:33:29;8.43;;;7.63;;
2860;SDS011;1438;50.922;6.704;2023-06-19T01:35:58;8.20;;;7.50;;
2860;SDS011;1438;50.922;6.704;2023-06-19T01:38:25;8.13;;;7.43;;
2860;SDS011;1438;50.922;6.704;2023-06-19T01:40:54;9.63;;;7.87;;
2860;SDS011;1438;50.922;6.704;2023-06-19T01:43:21;8.10;;;7.40;;
2860;SDS011;1438;50.922;6.704;2023-06-19T01:45:47;7.93;;;6.93;;
2860;SDS011;1438;50.922;6.704;2023-06-19T01:48:14;10.07;;;7.00;;
2860;SDS011;1438;50.922;6.704;2023-06-19T01:50:41;8.57;;;7.77;;
2860;SDS011;1438;50.922;6.704;2023-06-19T01:53:07;10.87;;;7.00;;
2860;SDS011;1438;50.922;6.704;2023-06-19T01:55:33;11.07;;;7.70;;
2860;SDS011;1438;50.922;6.704;2023-06-19T01:58:00;9.60;;;8.13;;
2860;SDS011;1438;50.922;6.704;2023-06-19T02:00:26;11.17;;;7.27;;
2860;SDS011;1438;50.922;6.704;2023-06-19T02:02:52;8.33;;;7.43;;
2860;SDS011;1438;50.922;6.704;2023-06-19T02:05:18;8.77;;;7.93;;
2860;SDS011;1438;50.922;6.704;2023-06-19T02:07:44;8.90;;;8.00;;
2860;SDS011;1438;50.922;6.704;2023-06-19T02:10:10;10.43;;;7.30;;
2860;SDS011;1438;50.922;6.704;2023-06-19T02:12:36;9.37;;;8.40;;
2860;SDS011;1438;50.922;6.704;2023-06-19T02:15:02;8.97;;;8.10;;
2860;SDS011;1438;50.922;6.704;2023-06-19T02:17:28;8.67;;;7.77;;
2860;SDS011;1438;50.922;6.704;2023-06-19T02:19:54;8.70;;;7.83;;
2860;SDS011;1438;50.922;6.704;2023-06-19T02:22:20;8.87;;;8.07;;
2860;SDS011;1438;50.922;6.704;2023-06-19T02:24:46;7.80;;;7.07;;
2860;SDS011;1438;50.922;6.704;2023-06-19T02:27:12;7.97;;;7.17;;
2860;SDS011;1438;50.922;6.704;2023-06-19T02:29:40;7.47;;;6.77;;
2860;SDS011;1438;50.922;6.704;2023-06-19T02:32:07;7.40;;;6.80;;
2860;SDS011;1438;50.922;6.704;2023-06-19T02:34:33;8.10;;;7.40;;
2860;SDS011;1438;50.922;6.704;2023-06-19T02:36:59;9.03;;;8.13;;
2860;SDS011;1438;50.922;6.704;2023-06-19T02:39:25;8.17;;;7.47;;
2860;SDS011;1438;50.922;6.704;2023-06-19T02:41:51;9.10;;;8.27;;
2860;SDS011;1438;50.922;6.704;2023-06-19T02:44:17;8.70;;;7.83;;
2860;SDS011;1438;50.922;6.704;2023-06-19T02:46:43;9.17;;;8.37;;
2860;SDS011;1438;50.922;6.704;2023-06-19T02:49:09;8.60;;;7.80;;
2860;SDS011;1438;50.922;6.704;2023-06-19T02:51:35;8.97;;;8.07;;
2860;SDS011;1438;50.922;6.704;2023-06-19T02:54:01;8.47;;;7.77;;
2860;SDS011;1438;50.922;6.704;2023-06-19T02:56:27;8.70;;;7.80;;
2860;SDS011;1438;50.922;6.704;2023-06-19T02:58:53;8.60;;;7.80;;
2860;SDS011;1438;50.922;6.704;2023-06-19T03:01:19;7.30;;;6.60;;
2860;SDS011;1438;50.922;6.704;2023-06-19T03:03:45;8.13;;;7.43;;
2860;SDS011;1438;50.922;6.704;2023-06-19T03:06:12;8.73;;;7.60;;
2860;SDS011;1438;50.922;6.704;2023-06-19T03:08:39;9.23;;;8.00;;
2860;SDS011;1438;50.922;6.704;2023-06-19T03:11:05;8.13;;;7.33;;
2860;SDS011;1438;50.922;6.704;2023-06-19T03:13:44;7.60;;;6.90;;
2860;SDS011;1438;50.922;6.704;2023-06-19T03:16:11;8.50;;;7.70;;
2860;SDS011;1438;50.922;6.704;2023-06-19T03:18:37;8.03;;;7.03;;
2860;SDS011;1438;50.922;6.704;2023-06-19T03:21:03;11.33;;;6.67;;
2860;SDS011;1438;50.922;6.704;2023-06-19T03:23:29;12.00;;;6.23;;
2860;SDS011;1438;50.922;6.704;2023-06-19T03:25:55;8.60;;;6.93;;
2860;SDS011;1438;50.922;6.704;2023-06-19T03:28:22;8.20;;;6.53;;
2860;SDS011;1438;50.922;6.704;2023-06-19T03:30:49;9.40;;;6.50;;
2860;SDS011;1438;50.922;6.704;2023-06-19T03:33:15;8.17;;;6.27;;
2860;SDS011;1438;50.922;6.704;2023-06-19T03:35:41;7.40;;;5.97;;
2860;SDS011;1438;50.922;6.704;2023-06-19T03:38:07;8.03;;;6.27;;
2860;SDS011;1438;50.922;6.704;2023-06-19T03:40:33;8.40;;;6.20;;
2860;SDS011;1438;50.922;6.704;2023-06-19T03:42:59;6.50;;;5.90;;
2860;SDS011;1438;50.922;6.704;2023-06-19T03:45:25;5.90;;;5.30;;
2860;SDS011;1438;50.922;6.704;2023-06-19T03:47:51;11.20;;;5.37;;
2860;SDS011;1438;50.922;6.704;2023-06-19T03:50:17;7.30;;;5.40;;
2860;SDS011;1438;50.922;6.704;2023-06-19T03:52:43;9.90;;;5.60;;
2860;SDS011;1438;50.922;6.704;2023-06-19T03:55:09;7.30;;;5.30;;
2860;SDS011;1438;50.922;6.704;2023-06-19T03:57:35;6.73;;;5.30;;
2860;SDS011;1438;50.922;6.704;2023-06-19T04:00:02;5.97;;;5.20;;
2860;SDS011;1438;50.922;6.704;2023-06-19T04:02:32;5.43;;;4.93;;
2860;SDS011;1438;50.922;6.704;2023-06-19T04:04:58;8.23;;;4.60;;
2860;SDS011;1438;50.922;6.704;2023-06-19T04:07:24;5.90;;;4.00;;
2860;SDS011;1438;50.922;6.704;2023-06-19T04:09:50;4.20;;;3.80;;
2860;SDS011;1438;50.922;6.704;2023-06-19T04:12:16;8.00;;;4.63;;
2860;SDS011;1438;50.922;6.704;2023-06-19T04:14:42;7.60;;;4.00;;
2860;SDS011;1438;50.922;6.704;2023-06-19T04:17:08;8.03;;;5.53;;
2860;SDS011;1438;50.922;6.704;2023-06-19T04:19:34;6.10;;;4.40;;
2860;SDS011;1438;50.922;6.704;2023-06-19T04:22:00;5.60;;;3.93;;
2860;SDS011;1438;50.922;6.704;2023-06-19T04:24:26;5.70;;;3.97;;
2860;SDS011;1438;50.922;6.704;2023-06-19T04:26:52;6.00;;;3.70;;
2860;SDS011;1438;50.922;6.704;2023-06-19T04:29:18;7.20;;;3.87;;
2860;SDS011;1438;50.922;6.704;2023-06-19T04:31:44;5.23;;;3.40;;
2860;SDS011;1438;50.922;6.704;2023-06-19T04:34:16;3.90;;;3.60;;
2860;SDS011;1438;50.922;6.704;2023-06-19T04:36:45;5.13;;;3.77;;
2860;SDS011;1438;50.922;6.704;2023-06-19T04:39:11;5.33;;;3.73;;
2860;SDS011;1438;50.922;6.704;2023-06-19T04:41:37;7.60;;;4.13;;
2860;SDS011;1438;50.922;6.704;2023-06-19T04:44:06;3.80;;;3.13;;
2860;SDS011;1438;50.922;6.704;2023-06-19T04:46:33;5.33;;;4.10;;
2860;SDS011;1438;50.922;6.704;2023-06-19T04:48:59;4.30;;;3.10;;
2860;SDS011;1438;50.922;6.704;2023-06-19T04:51:28;6.40;;;3.13;;
2860;SDS011;1438;50.922;6.704;2023-06-19T04:53:54;3.93;;;3.17;;
2860;SDS011;1438;50.922;6.704;2023-06-19T04:56:20;3.80;;;3.00;;
2860;SDS011;1438;50.922;6.704;2023-06-19T04:58:46;6.77;;;3.33;;
2860;SDS011;1438;50.922;6.704;2023-06-19T05:01:14;3.33;;;2.90;;
2860;SDS011;1438;50.922;6.704;2023-06-19T05:03:40;3.30;;;2.87;;
2860;SDS011;1438;50.922;6.704;2023-06-19T05:06:06;5.63;;;3.47;;
2860;SDS011;1438;50.922;6.704;2023-06-19T05:08:33;6.90;;;3.30;;
2860;SDS011;1438;50.922;6.704;2023-06-19T05:10:59;3.40;;;2.87;;
2860;SDS011;1438;50.922;6.704;2023-06-19T05:13:25;4.13;;;3.03;;
2860;SDS011;1438;50.922;6.704;2023-06-19T05:15:51;3.83;;;3.30;;
2860;SDS011;1438;50.922;6.704;2023-06-19T05:18:17;4.33;;;3.27;;
2860;SDS011;1438;50.922;6.704;2023-06-19T05:20:44;3.73;;;3.00;;
2860;SDS011;1438;50.922;6.704;2023-06-19T05:23:10;3.90;;;2.77;;
2860;SDS011;1438;50.922;6.704;2023-06-19T05:25:36;4.70;;;2.67;;
2860;SDS011;1438;50.922;6.704;2023-06-19T05:28:02;6.73;;;3.37;;
2860;SDS011;1438;50.922;6.704;2023-06-19T05:30:28;7.90;;;3.53;;
2860;SDS011;1438;50.922;6.704;2023-06-19T05:32:55;4.10;;;2.03;;
2860;SDS011;1438;50.922;6.704;2023-06-19T05:35:21;4.03;;;2.57;;
2860;SDS011;1438;50.922;6.704;2023-06-19T05:37:47;2.30;;;2.00;;
2860;SDS011;1438;50.922;6.704;2023-06-19T05:40:13;1.83;;;1.73;;
2860;SDS011;1438;50.922;6.704;2023-06-19T05:42:39;3.17;;;2.17;;
2860;SDS011;1438;50.922;6.704;2023-06-19T05:45:06;2.97;;;2.60;;
2860;SDS011;1438;50.922;6.704;2023-06-19T05:47:32;2.73;;;1.93;;
2860;SDS011;1438;50.922;6.704;2023-06-19T05:49:58;2.80;;;1.93;;
2860;SDS011;1438;50.922;6.704;2023-06-19T05:52:25;2.47;;;2.27;;
2860;SDS011;1438;50.922;6.704;2023-06-19T05:54:51;2.80;;;2.40;;
2860;SDS011;1438;50.922;6.704;2023-06-19T05:57:19;2.90;;;1.90;;
2860;SDS011;1438;50.922;6.704;2023-06-19T05:59:48;5.20;;;2.00;;
2860;SDS011;1438;50.922;6.704;2023-06-19T06:02:14;3.43;;;2.23;;
2860;SDS011;1438;50.922;6.704;2023-06-19T06:04:40;3.53;;;2.20;;
2860;SDS011;1438;50.922;6.704;2023-06-19T06:07:07;3.07;;;2.10;;
2860;SDS011;1438;50.922;6.704;2023-06-19T06:09:33;3.90;;;2.10;;
2860;SDS011;1438;50.922;6.704;2023-06-19T06:11:59;2.53;;;2.20;;
2860;SDS011;1438;50.922;6.704;2023-06-19T06:14:26;2.07;;;1.77;;
2860;SDS011;1438;50.922;6.704;2023-06-19T06:16:52;2.83;;;1.60;;
2860;SDS011;1438;50.922;6.704;2023-06-19T06:19:19;3.50;;;1.70;;
2860;SDS011;1438;50.922;6.704;2023-06-19T06:21:49;1.77;;;1.50;;
2860;SDS011;1438;50.922;6.704;2023-06-19T06:24:15;1.40;;;1.30;;
2860;SDS011;1438;50.922;6.704;2023-06-19T06:26:41;2.00;;;1.63;;
2860;SDS011;1438;50.922;6.704;2023-06-19T06:29:07;1.70;;;1.50;;
2860;SDS011;1438;50.922;6.704;2023-06-19T06:31:33;1.73;;;1.57;;
2860;SDS011;1438;50.922;6.704;2023-06-19T06:33:59;1.70;;;1.40;;
2860;SDS011;1438;50.922;6.704;2023-06-19T06:36:26;1.50;;;1.33;;
2860;SDS011;1438;50.922;6.704;2023-06-19T06:38:52;1.40;;;1.30;;
2860;SDS011;1438;50.922;6.704;2023-06-19T06:41:17;3.27;;;1.60;;
2860;SDS011;1438;50.922;6.704;2023-06-19T06:43:44;1.57;;;1.37;;
2860;SDS011;1438;50.922;6.704;2023-06-19T06:46:10;2.70;;;1.40;;
2860;SDS011;1438;50.922;6.704;2023-06-19T06:48:36;2.40;;;1.93;;
2860;SDS011;1438;50.922;6.704;2023-06-19T06:51:02;2.20;;;1.83;;
2860;SDS011;1438;50.922;6.704;2023-06-19T06:53:28;3.13;;;1.77;;
2860;SDS011;1438;50.922;6.704;2023-06-19T06:55:57;2.60;;;1.40;;
2860;SDS011;1438;50.922;6.704;2023-06-19T06:58:23;1.43;;;1.30;;
2860;SDS011;1438;50.922;6.704;2023-06-19T07:00:49;1.80;;;1.47;;
2860;SDS011;1438;50.922;6.704;2023-06-19T07:03:16;4.30;;;1.80;;
2860;SDS011;1438;50.922;6.704;2023-06-19T07:05:43;1.73;;;1.40;;
2860;SDS011;1438;50.922;6.704;2023-06-19T07:08:09;3.27;;;1.43;;
2860;SDS011;1438;50.922;6.704;2023-06-19T07:10:35;3.30;;;1.50;;
2860;SDS011;1438;50.922;6.704;2023-06-19T07:13:01;4.03;;;1.83;;
2860;SDS011;1438;50.922;6.704;2023-06-19T07:15:27;2.57;;;1.30;;
2860;SDS011;1438;50.922;6.704;2023-06-19T07:17:53;1.37;;;1.27;;
2860;SDS011;1438;50.922;6.704;2023-06-19T07:20:19;3.00;;;1.90;;
2860;SDS011;1438;50.922;6.704;2023-06-19T07:22:45;2.80;;;1.80;;
2860;SDS011;1438;50.922;6.704;2023-06-19T07:25:11;1.47;;;1.37;;
2860;SDS011;1438;50.922;6.704;2023-06-19T07:27:38;2.50;;;1.80;;
2860;SDS011;1438;50.922;6.704;2023-06-19T07:30:04;2.47;;;1.73;;
2860;SDS011;1438;50.922;6.704;2023-06-19T07:32:30;4.00;;;1.83;;
2860;SDS011;1438;50.922;6.704;2023-06-19T07:34:56;4.57;;;1.80;;
2860;SDS011;1438;50.922;6.704;2023-06-19T07:37:22;3.43;;;2.07;;
2860;SDS011;1438;50.922;6.704;2023-06-19T07:39:49;3.27;;;2.13;;
2860;SDS011;1438;50.922;6.704;2023-06-19T07:42:15;5.80;;;2.13;;
2860;SDS011;1438;50.922;6.704;2023-06-19T07:44:42;2.80;;;2.00;;
2860;SDS011;1438;50.922;6.704;2023-06-19T07:47:08;3.30;;;1.80;;
2860;SDS011;1438;50.922;6.704;2023-06-19T07:49:34;1.97;;;1.77;;
2860;SDS011;1438;50.922;6.704;2023-06-19T07:52:01;3.43;;;1.80;;
2860;SDS011;1438;50.922;6.704;2023-06-19T07:54:27;2.10;;;1.60;;
2860;SDS011;1438;50.922;6.704;2023-06-19T07:56:53;2.23;;;1.83;;
2860;SDS011;1438;50.922;6.704;2023-06-19T07:59:19;3.00;;;1.83;;
2860;SDS011;1438;50.922;6.704;2023-06-19T08:01:45;3.03;;;2.17;;
2860;SDS011;1438;50.922;6.704;2023-06-19T08:04:11;2.33;;;2.13;;
2860;SDS011;1438;50.922;6.704;2023-06-19T08:06:37;4.07;;;2.17;;
2860;SDS011;1438;50.922;6.704;2023-06-19T08:09:03;6.67;;;2.23;;
2860;SDS011;1438;50.922;6.704;2023-06-19T08:11:30;4.00;;;2.00;;
2860;SDS011;1438;50.922;6.704;2023-06-19T08:13:56;2.43;;;2.20;;
2860;SDS011;1438;50.922;6.704;2023-06-19T08:16:22;2.57;;;1.90;;
2860;SDS011;1438;50.922;6.704;2023-06-19T08:18:48;4.00;;;2.30;;
2860;SDS011;1438;50.922;6.704;2023-06-19T08:21:14;2.70;;;2.47;;
2860;SDS011;1438;50.922;6.704;2023-06-19T08:23:40;3.27;;;2.20;;
2860;SDS011;1438;50.922;6.704;2023-06-19T08:26:08;3.53;;;2.33;;
2860;SDS011;1438;50.922;6.704;2023-06-19T08:28:34;6.03;;;2.87;;
2860;SDS011;1438;50.922;6.704;2023-06-19T08:31:00;3.63;;;2.53;;
2860;SDS011;1438;50.922;6.704;2023-06-19T08:33:26;4.13;;;2.80;;
2860;SDS011;1438;50.922;6.704;2023-06-19T08:35:52;3.83;;;2.63;;
2860;SDS011;1438;50.922;6.704;2023-06-19T08:38:18;4.33;;;2.90;;
2860;SDS011;1438;50.922;6.704;2023-06-19T08:40:45;4.37;;;3.13;;
2860;SDS011;1438;50.922;6.704;2023-06-19T08:43:11;2.90;;;2.70;;
2860;SDS011;1438;50.922;6.704;2023-06-19T08:45:37;5.40;;;2.50;;
2860;SDS011;1438;50.922;6.704;2023-06-19T08:48:03;2.87;;;2.50;;
2860;SDS011;1438;50.922;6.704;2023-06-19T08:50:30;4.53;;;2.90;;
2860;SDS011;1438;50.922;6.704;2023-06-19T08:52:56;4.10;;;3.10;;
2860;SDS011;1438;50.922;6.704;2023-06-19T08:55:22;5.47;;;3.00;;
2860;SDS011;1438;50.922;6.704;2023-06-19T08:57:49;5.57;;;4.07;;
2860;SDS011;1438;50.922;6.704;2023-06-19T09:00:27;5.67;;;3.43;;
2860;SDS011;1438;50.922;6.704;2023-06-19T09:03:01;3.63;;;3.20;;
2860;SDS011;1438;50.922;6.704;2023-06-19T09:05:27;4.37;;;3.10;;
2860;SDS011;1438;50.922;6.704;2023-06-19T09:07:54;4.43;;;3.30;;
2860;SDS011;1438;50.922;6.704;2023-06-19T09:10:21;5.00;;;3.40;;
2860;SDS011;1438;50.922;6.704;2023-06-19T09:12:56;3.90;;;3.40;;
2860;SDS011;1438;50.922;6.704;2023-06-19T09:15:22;6.80;;;3.60;;
2860;SDS011;1438;50.922;6.704;2023-06-19T09:17:58;6.50;;;3.50;;
2860;SDS011;1438;50.922;6.704;2023-06-19T09:20:28;4.40;;;3.33;;
2860;SDS011;1438;50.922;6.704;2023-06-19T09:22:57;4.00;;;3.60;;
2860;SDS011;1438;50.922;6.704;2023-06-19T09:25:23;5.63;;;3.67;;
2860;SDS011;1438;50.922;6.704;2023-06-19T09:27:51;4.30;;;3.23;;
2860;SDS011;1438;50.922;6.704;2023-06-19T09:30:18;4.00;;;3.70;;
2860;SDS011;1438;50.922;6.704;2023-06-19T09:32:44;4.00;;;3.60;;
2860;SDS011;1438;50.922;6.704;2023-06-19T09:35:10;3.60;;;3.30;;
2860;SDS011;1438;50.922;6.704;2023-06-19T09:37:36;2.97;;;2.67;;
2860;SDS011;1438;50.922;6.704;2023-06-19T09:40:03;4.10;;;3.47;;
2860;SDS011;1438;50.922;6.704;2023-06-19T09:42:42;8.13;;;3.43;;
2860;SDS011;1438;50.922;6.704;2023-06-19T09:45:09;3.83;;;3.30;;
2860;SDS011;1438;50.922;6.704;2023-06-19T09:47:37;4.53;;;3.50;;
2860;SDS011;1438;50.922;6.704;2023-06-19T09:50:03;4.10;;;3.40;;
2860;SDS011;1438;50.922;6.704;2023-06-19T09:52:29;4.93;;;3.63;;
2860;SDS011;1438;50.922;6.704;2023-06-19T09:54:56;6.60;;;3.97;;
2860;SDS011;1438;50.922;6.704;2023-06-19T09:57:25;5.37;;;3.67;;
2860;SDS011;1438;50.922;6.704;2023-06-19T09:59:53;7.33;;;3.83;;
2860;SDS011;1438;50.922;6.704;2023-06-19T10:02:21;7.53;;;4.17;;
2860;SDS011;1438;50.922;6.704;2023-06-19T10:04:54;3.40;;;3.10;;
2860;SDS011;1438;50.922;6.704;2023-06-19T10:07:24;5.83;;;3.43;;
2860;SDS011;1438;50.922;6.704;2023-06-19T10:10:05;5.40;;;3.50;;
2860;SDS011;1438;50.922;6.704;2023-06-19T10:12:44;7.00;;;3.80;;
2860;SDS011;1438;50.922;6.704;2023-06-19T10:17:50;5.00;;;3.30;;
2860;SDS011;1438;50.922;6.704;2023-06-19T10:20:49;5.80;;;3.97;;
2860;SDS011;1438;50.922;6.704;2023-06-19T10:25:39;7.53;;;3.80;;
2860;SDS011;1438;50.922;6.704;2023-06-19T10:30:44;3.97;;;3.37;;
2860;SDS011;1438;50.922;6.704;2023-06-19T10:33:10;3.83;;;3.53;;
2860;SDS011;1438;50.922;6.704;2023-06-19T10:35:40;7.37;;;3.57;;
2860;SDS011;1438;50.922;6.704;2023-06-19T10:38:07;5.47;;;4.23;;
2860;SDS011;1438;50.922;6.704;2023-06-19T10:40:36;4.10;;;3.30;;
2860;SDS011;1438;50.922;6.704;2023-06-19T10:43:03;5.63;;;3.97;;
2860;SDS011;1438;50.922;6.704;2023-06-19T10:45:29;6.27;;;3.53;;
2860;SDS011;1438;50.922;6.704;2023-06-19T10:47:55;5.80;;;4.10;;
2860;SDS011;1438;50.922;6.704;2023-06-19T10:50:21;3.70;;;3.27;;
2860;SDS011;1438;50.922;6.704;2023-06-19T10:52:48;4.67;;;3.93;;
2860;SDS011;1438;50.922;6.704;2023-06-19T10:55:14;6.67;;;4.20;;
2860;SDS011;1438;50.922;6.704;2023-06-19T10:57:44;6.83;;;3.77;;
2860;SDS011;1438;50.922;6.704;2023-06-19T11:00:10;10.20;;;4.20;;
2860;SDS011;1438;50.922;6.704;2023-06-19T11:02:41;6.10;;;4.03;;
2860;SDS011;1438;50.922;6.704;2023-06-19T11:05:11;6.67;;;3.60;;
2860;SDS011;1438;50.922;6.704;2023-06-19T11:07:37;4.80;;;4.30;;
2860;SDS011;1438;50.922;6.704;2023-06-19T11:10:03;4.30;;;3.90;;
2860;SDS011;1438;50.922;6.704;2023-06-19T11:12:30;6.97;;;4.37;;
2860;SDS011;1438;50.922;6.704;2023-06-19T11:14:57;5.30;;;4.13;;
2860;SDS011;1438;50.922;6.704;2023-06-19T11:17:23;5.93;;;4.27;;
2860;SDS011;1438;50.922;6.704;2023-06-19T11:19:50;4.57;;;3.90;;
2860;SDS011;1438;50.922;6.704;2023-06-19T11:22:16;4.30;;;3.90;;
2860;SDS011;1438;50.922;6.704;2023-06-19T11:24:43;4.80;;;3.93;;
2860;SDS011;1438;50.922;6.704;2023-06-19T11:27:16;9.20;;;4.00;;
2860;SDS011;1438;50.922;6.704;2023-06-19T11:29:42;4.90;;;4.30;;
2860;SDS011;1438;50.922;6.704;2023-06-19T11:32:09;4.73;;;4.03;;
2860;SDS011;1438;50.922;6.704;2023-06-19T11:34:36;4.33;;;3.90;;
2860;SDS011;1438;50.922;6.704;2023-06-19T11:37:11;7.30;;;4.40;;
2860;SDS011;1438;50.922;6.704;2023-06-19T11:39:37;7.97;;;3.93;;
2860;SDS011;1438;50.922;6.704;2023-06-19T11:42:04;4.87;;;3.80;;
2860;SDS011;1438;50.922;6.704;2023-06-19T11:44:30;6.90;;;3.90;;
2860;SDS011;1438;50.922;6.704;2023-06-19T11:46:57;6.83;;;4.50;;
2860;SDS011;1438;50.922;6.704;2023-06-19T11:49:28;4.80;;;4.17;;
2860;SDS011;1438;50.922;6.704;2023-06-19T11:52:00;5.70;;;3.77;;
2860;SDS011;1438;50.922;6.704;2023-06-19T11:54:26;4.40;;;4.00;;
2860;SDS011;1438;50.922;6.704;2023-06-19T11:56:52;6.40;;;3.90;;
2860;SDS011;1438;50.922;6.704;2023-06-19T11:59:18;4.20;;;3.80;;
2860;SDS011;1438;50.922;6.704;2023-06-19T12:01:44;7.10;;;4.13;;
2860;SDS011;1438;50.922;6.704;2023-06-19T12:04:10;4.60;;;4.20;;
2860;SDS011;1438;50.922;6.704;2023-06-19T12:06:36;5.50;;;4.30;;
2860;SDS011;1438;50.922;6.704;2023-06-19T12:09:03;7.93;;;3.87;;
2860;SDS011;1438;50.922;6.704;2023-06-19T12:11:32;4.33;;;3.93;;
2860;SDS011;1438;50.922;6.704;2023-06-19T12:13:58;6.80;;;3.53;;
2860;SDS011;1438;50.922;6.704;2023-06-19T12:16:24;5.53;;;3.80;;
2860;SDS011;1438;50.922;6.704;2023-06-19T12:18:50;3.80;;;3.50;;
2860;SDS011;1438;50.922;6.704;2023-06-19T12:21:16;5.50;;;3.10;;
2860;SDS011;1438;50.922;6.704;2023-06-19T12:23:42;5.20;;;4.70;;
2860;SDS011;1438;50.922;6.704;2023-06-19T12:26:08;4.57;;;4.17;;
2860;SDS011;1438;50.922;6.704;2023-06-19T12:28:34;3.67;;;3.37;;
2860;SDS011;1438;50.922;6.704;2023-06-19T12:31:00;4.07;;;3.67;;
2860;SDS011;1438;50.922;6.704;2023-06-19T12:33:28;6.00;;;3.97;;
2860;SDS011;1438;50.922;6.704;2023-06-19T12:35:57;4.80;;;3.63;;
2860;SDS011;1438;50.922;6.704;2023-06-19T12:38:23;5.70;;;3.70;;
2860;SDS011;1438;50.922;6.704;2023-06-19T12:40:49;4.60;;;3.43;;
2860;SDS011;1438;50.922;6.704;2023-06-19T12:43:15;3.90;;;3.50;;
2860;SDS011;1438;50.922;6.704;2023-06-19T12:45:41;5.57;;;3.83;;
2860;SDS011;1438;50.922;6.704;2023-06-19T12:48:08;4.53;;;3.83;;
2860;SDS011;1438;50.922;6.704;2023-06-19T12:50:36;3.80;;;3.13;;
2860;SDS011;1438;50.922;6.704;2023-06-19T12:53:02;3.70;;;3.30;;
2860;SDS011;1438;50.922;6.704;2023-06-19T12:55:28;3.73;;;3.40;;
2860;SDS011;1438;50.922;6.704;2023-06-19T12:57:54;5.47;;;4.03;;
2860;SDS011;1438;50.922;6.704;2023-06-19T13:00:20;5.63;;;3.60;;
2860;SDS011;1438;50.922;6.704;2023-06-19T13:02:46;3.67;;;3.37;;
2860;SDS011;1438;50.922;6.704;2023-06-19T13:05:12;5.40;;;4.10;;
2860;SDS011;1438;50.922;6.704;2023-06-19T13:07:38;8.13;;;3.80;;
2860;SDS011;1438;50.922;6.704;2023-06-19T13:10:04;5.97;;;3.60;;
2860;SDS011;1438;50.922;6.704;2023-06-19T13:12:31;4.33;;;3.57;;
2860;SDS011;1438;50.922;6.704;2023-06-19T13:14:57;4.47;;;4.07;;
2860;SDS011;1438;50.922;6.704;2023-06-19T13:17:23;4.90;;;3.63;;
2860;SDS011;1438;50.922;6.704;2023-06-19T13:19:49;4.13;;;3.83;;
2860;SDS011;1438;50.922;6.704;2023-06-19T13:22:15;4.53;;;4.07;;
2860;SDS011;1438;50.922;6.704;2023-06-19T13:24:41;4.20;;;3.80;;
2860;SDS011;1438;50.922;6.704;2023-06-19T13:27:07;5.47;;;3.20;;
2860;SDS011;1438;50.922;6.704;2023-06-19T13:29:33;4.43;;;3.53;;
2860;SDS011;1438;50.922;6.704;2023-06-19T13:32:00;6.00;;;3.50;;
2860;SDS011;1438;50.922;6.704;2023-06-19T13:34:26;6.10;;;3.80;;
2860;SDS011;1438;50.922;6.704;2023-06-19T13:36:52;10.43;;;3.40;;
2860;SDS011;1438;50.922;6.704;2023-06-19T13:39:18;4.70;;;4.20;;
2860;SDS011;1438;50.922;6.704;2023-06-19T13:41:45;4.77;;;3.50;;
2860;SDS011;1438;50.922;6.704;2023-06-19T13:44:11;5.07;;;3.97;;
2860;SDS011;1438;50.922;6.704;2023-06-19T13:46:37;7.67;;;4.10;;
2860;SDS011;1438;50.922;6.704;2023-06-19T13:49:03;4.60;;;4.20;;
2860;SDS011;1438;50.922;6.704;2023-06-19T13:51:29;5.60;;;3.33;;
2860;SDS011;1438;50.922;6.704;2023-06-19T13:53:56;3.37;;;3.07;;
2860;SDS011;1438;50.922;6.704;2023-06-19T13:56:22;7.57;;;3.30;;
2860;SDS011;1438;50.922;6.704;2023-06-19T13:58:48;4.27;;;3.40;;
2860;SDS011;1438;50.922;6.704;2023-06-19T14:01:14;4.23;;;3.60;;
2860;SDS011;1438;50.922;6.704;2023-06-19T14:03:40;4.67;;;3.70;;
2860;SDS011;1438;50.922;6.704;2023-06-19T14:06:06;5.80;;;3.77;;
2860;SDS011;1438;50.922;6.704;2023-06-19T14:08:33;4.53;;;3.20;;
2860;SDS011;1438;50.922;6.704;2023-06-19T14:10:59;5.30;;;3.17;;
2860;SDS011;1438;50.922;6.704;2023-06-19T14:13:25;6.63;;;3.80;;
2860;SDS011;1438;50.922;6.704;2023-06-19T14:15:52;5.13;;;3.37;;
2860;SDS011;1438;50.922;6.704;2023-06-19T14:18:18;7.30;;;4.20;;
2860;SDS011;1438;50.922;6.704;2023-06-19T14:20:44;5.13;;;3.70;;
2860;SDS011;1438;50.922;6.704;2023-06-19T14:23:10;5.27;;;3.40;;
2860;SDS011;1438;50.922;6.704;2023-06-19T14:25:36;4.93;;;3.40;;
2860;SDS011;1438;50.922;6.704;2023-06-19T14:28:03;5.87;;;3.70;;
2860;SDS011;1438;50.922;6.704;2023-06-19T14:30:29;4.33;;;3.87;;
2860;SDS011;1438;50.922;6.704;2023-06-19T14:32:56;4.23;;;3.83;;
2860;SDS011;1438;50.922;6.704;2023-06-19T14:35:22;5.87;;;3.60;;
2860;SDS011;1438;50.922;6.704;2023-06-19T14:37:48;5.00;;;3.93;;
2860;SDS011;1438;50.922;6.704;2023-06-19T14:40:14;4.10;;;3.70;;
2860;SDS011;1438;50.922;6.704;2023-06-19T14:42:40;9.20;;;3.80;;
2860;SDS011;1438;50.922;6.704;2023-06-19T14:45:06;5.10;;;3.63;;
2860;SDS011;1438;50.922;6.704;2023-06-19T14:47:32;4.33;;;3.23;;
2860;SDS011;1438;50.922;6.704;2023-06-19T14:49:59;5.77;;;3.70;;
2860;SDS011;1438;50.922;6.704;2023-06-19T14:52:25;4.43;;;3.50;;
2860;SDS011;1438;50.922;6.704;2023-06-19T14:54:51;4.50;;;3.50;;
2860;SDS011;1438;50.922;6.704;2023-06-19T14:57:17;9.20;;;3.57;;
2860;SDS011;1438;50.922;6.704;2023-06-19T14:59:43;5.13;;;3.43;;
2860;SDS011;1438;50.922;6.704;2023-06-19T15:02:09;4.17;;;3.60;;
2860;SDS011;1438;50.922;6.704;2023-06-19T15:04:36;5.37;;;4.13;;
2860;SDS011;1438;50.922;6.704;2023-06-19T15:07:03;4.00;;;3.60;;
2860;SDS011;1438;50.922;6.704;2023-06-19T15:09:29;4.03;;;3.63;;
2860;SDS011;1438;50.922;6.704;2023-06-19T15:11:55;4.40;;;3.87;;
2860;SDS011;1438;50.922;6.704;2023-06-19T15:14:21;6.83;;;3.67;;
2860;SDS011;1438;50.922;6.704;2023-06-19T15:16:47;7.33;;;4.00;;
2860;SDS011;1438;50.922;6.704;2023-06-19T15:19:13;4.73;;;4.27;;